Time;durP1;ratioP1;P1;durP2;ratioP2;P2;SDS_P1;SDS_P2;PMS_P1;PMS_P2;Temp;Humidity;BMP_temperature;BMP_pressure;BME280_temperature;BME280_humidity;BME280_pressure;Samples;Min_cycle;Max_cycle;Signal;HPM_P1;HPM_P2
2022/03/23 00:01:00;;;;;;;2.97;2.30;;;;;;;-148.56;100.00;61375.16;4969246;28;20031;-36
2022/03/23 00:03:26;;;;;;;2.67;2.30;;;;;;;-148.56;100.00;61375.16;4968686;28;20090;-32
2022/03/23 00:05:52;;;;;;;2.78;2.10;;;;;;;-148.56;100.00;61375.16;4969377;28;20814;-39
2022/03/23 00:08:19;;;;;;;2.85;2.15;;;;;;;-148.56;100.00;61375.16;4969338;28;20093;-37
2022/03/23 00:10:45;;;;;;;5.45;2.40;;;;;;;-148.56;100.00;61375.16;4969561;28;20038;-35
2022/03/23 00:13:10;;;;;;;3.63;2.33;;;;;;;-148.56;100.00;61375.16;4969619;28;20532;-37
2022/03/23 00:15:35;;;;;;;6.72;2.30;;;;;;;-148.56;100.00;61375.16;4969822;28;20118;-39
2022/03/23 00:18:01;;;;;;;4.30;2.28;;;;;;;-148.56;100.00;61375.16;4971308;28;20541;-36
2022/03/23 00:20:26;;;;;;;2.50;2.15;;;;;;;-148.56;100.00;61375.16;4970609;28;20034;-37
2022/03/23 00:22:52;;;;;;;3.60;2.50;;;;;;;-148.56;100.00;61375.16;4970308;28;20101;-38
2022/03/23 00:25:17;;;;;;;2.50;2.00;;;;;;;-148.56;100.00;61375.16;4969908;28;20045;-35
2022/03/23 00:27:43;;;;;;;5.80;2.58;;;;;;;-148.56;100.00;61375.16;4969755;28;20027;-36
2022/03/23 00:30:08;;;;;;;2.63;2.10;;;;;;;-148.56;100.00;61375.16;4969826;28;20531;-37
2022/03/23 00:32:34;;;;;;;4.32;2.20;;;;;;;-148.56;100.00;61375.16;4970178;28;20034;-37
2022/03/23 00:35:00;;;;;;;4.90;2.45;;;;;;;-148.56;100.00;61375.16;4969921;28;20057;-38
2022/03/23 00:37:25;;;;;;;2.83;2.17;;;;;;;-148.56;100.00;61375.16;4952239;28;20644;-34
2022/03/23 00:39:51;;;;;;;2.95;2.25;;;;;;;-148.56;100.00;61375.16;4969886;28;20035;-31
2022/03/23 00:42:16;;;;;;;2.42;1.83;;;;;;;-148.56;100.00;61375.16;4969376;28;20089;-35
2022/03/23 00:44:42;;;;;;;3.25;2.08;;;;;;;-148.56;100.00;61375.16;4950919;28;20034;-33
2022/03/23 00:47:08;;;;;;;3.47;2.20;;;;;;;-148.56;100.00;61375.16;4965698;28;20031;-36
2022/03/23 00:49:33;;;;;;;3.47;2.10;;;;;;;-148.56;100.00;61375.16;4969495;28;20022;-35
2022/03/23 00:51:59;;;;;;;5.55;2.38;;;;;;;-148.56;100.00;61375.16;4970206;28;20042;-34
2022/03/23 00:54:24;;;;;;;3.80;2.25;;;;;;;-148.56;100.00;61375.16;4969020;28;20053;-35
2022/03/23 00:56:51;;;;;;;3.10;2.22;;;;;;;-148.56;100.00;61375.16;4968695;28;20065;-36
2022/03/23 00:59:22;;;;;;;4.13;2.10;;;;;;;-148.56;100.00;61375.16;4969905;28;20030;-34
2022/03/23 01:01:48;;;;;;;3.42;2.20;;;;;;;-148.56;100.00;61375.16;4968313;28;20073;-35
2022/03/23 01:04:14;;;;;;;2.75;2.20;;;;;;;-148.56;100.00;61375.16;4970949;28;20034;-36
2022/03/23 01:06:39;;;;;;;4.40;2.38;;;;;;;-148.56;100.00;61375.16;4949264;28;20033;-37
2022/03/23 01:09:05;;;;;;;2.67;2.10;;;;;;;-148.56;100.00;61375.16;4969174;28;20030;-39
2022/03/23 01:11:31;;;;;;;3.17;2.03;;;;;;;-148.56;100.00;61375.16;4971276;28;20436;-35
2022/03/23 01:13:56;;;;;;;2.92;1.98;;;;;;;-148.56;100.00;61375.16;4969260;28;20030;-34
2022/03/23 01:16:21;;;;;;;2.75;2.17;;;;;;;-148.56;100.00;61375.16;4952845;28;20030;-40
2022/03/23 01:18:47;;;;;;;2.63;2.10;;;;;;;-148.56;100.00;61375.16;4971290;28;20537;-33
2022/03/23 01:21:13;;;;;;;3.22;2.20;;;;;;;-148.56;100.00;61375.16;4969088;28;20034;-34
2022/03/23 01:23:39;;;;;;;3.42;2.10;;;;;;;-148.56;100.00;61375.16;4966776;28;20029;-33
2022/03/23 01:26:05;;;;;;;2.60;2.10;;;;;;;-148.56;100.00;61375.16;4967149;28;20026;-37
2022/03/23 01:28:30;;;;;;;3.00;2.10;;;;;;;-148.56;100.00;61375.16;4952423;28;20503;-35
2022/03/23 01:30:55;;;;;;;3.10;2.08;;;;;;;-148.56;100.00;61375.16;4968985;28;20022;-36
2022/03/23 01:33:22;;;;;;;2.80;2.00;;;;;;;-148.56;100.00;61375.16;4970924;28;20602;-33
2022/03/23 01:35:47;;;;;;;3.20;2.30;;;;;;;-148.56;100.00;61375.16;4970629;28;20042;-37
2022/03/23 01:38:13;;;;;;;2.63;2.00;;;;;;;-148.56;100.00;61375.16;4967334;28;20026;-34
2022/03/23 01:40:38;;;;;;;3.17;2.28;;;;;;;-148.56;100.00;61375.16;4966250;28;20520;-35
2022/03/23 01:43:04;;;;;;;3.22;2.15;;;;;;;-148.56;100.00;61375.16;4968872;28;20034;-33
2022/03/23 01:45:29;;;;;;;3.30;2.10;;;;;;;-148.56;100.00;61375.16;4968326;28;20042;-35
2022/03/23 01:47:55;;;;;;;3.45;1.90;;;;;;;-148.56;100.00;61375.16;4968941;28;20027;-34
2022/03/23 01:50:20;;;;;;;3.00;2.08;;;;;;;-148.56;100.00;61375.16;4966586;28;20030;-38
2022/03/23 01:52:46;;;;;;;4.40;2.20;;;;;;;-148.56;100.00;61375.16;4965546;28;20023;-34
2022/03/23 01:55:13;;;;;;;3.38;1.83;;;;;;;-148.56;100.00;61375.16;4969672;28;20019;-35
2022/03/23 01:57:39;;;;;;;2.10;1.73;;;;;;;-148.56;100.00;61375.16;4952930;28;20030;-36
2022/03/23 02:00:06;;;;;;;4.95;2.15;;;;;;;-148.56;100.00;61375.16;4968516;28;20752;-40
2022/03/23 02:02:31;;;;;;;2.90;2.00;;;;;;;-148.56;100.00;61375.16;4967004;28;20018;-35
2022/03/23 02:04:56;;;;;;;3.58;2.17;;;;;;;-148.56;100.00;61375.16;4966401;28;20022;-36
2022/03/23 02:07:22;;;;;;;2.75;1.90;;;;;;;-148.56;100.00;61375.16;4965775;28;20026;-37
2022/03/23 02:09:48;;;;;;;2.83;2.05;;;;;;;-148.56;100.00;61375.16;4965655;28;20362;-33
2022/03/23 02:12:13;;;;;;;2.28;2.00;;;;;;;-148.56;100.00;61375.16;4964435;28;20468;-36
2022/03/23 02:14:39;;;;;;;2.17;1.95;;;;;;;-148.56;100.00;61375.16;4935687;28;20038;-38
2022/03/23 02:17:05;;;;;;;2.25;1.65;;;;;;;-148.56;100.00;61375.16;4968716;28;20775;-31
2022/03/23 02:19:30;;;;;;;2.85;2.20;;;;;;;-148.56;100.00;61375.16;4967106;28;20030;-35
2022/03/23 02:21:56;;;;;;;3.28;1.90;;;;;;;-148.56;100.00;61375.16;4964659;28;20049;-38
2022/03/23 02:24:24;;;;;;;3.40;1.98;;;;;;;-148.56;100.00;61375.16;4970409;28;20035;-37
2022/03/23 02:26:49;;;;;;;3.13;2.10;;;;;;;-148.56;100.00;61375.16;4968947;28;20038;-34
2022/03/23 02:29:15;;;;;;;2.40;1.85;;;;;;;-148.56;100.00;61375.16;4968070;28;20072;-34
2022/03/23 02:31:40;;;;;;;3.38;2.03;;;;;;;-148.56;100.00;61375.16;4950375;28;20175;-33
2022/03/23 02:34:05;;;;;;;2.88;2.22;;;;;;;-148.56;100.00;61375.16;4967357;28;20522;-36
2022/03/23 02:36:31;;;;;;;3.17;2.10;;;;;;;-148.56;100.00;61375.16;4968107;28;20033;-37
2022/03/23 02:38:56;;;;;;;3.95;2.22;;;;;;;-148.56;100.00;61375.16;4966438;28;20029;-34
2022/03/23 02:41:22;;;;;;;3.65;2.15;;;;;;;-148.56;100.00;61375.16;4950819;28;20038;-37
2022/03/23 02:43:48;;;;;;;3.40;1.95;;;;;;;-148.56;100.00;61375.16;4969185;28;20042;-34
2022/03/23 02:46:13;;;;;;;3.25;1.85;;;;;;;-148.56;100.00;61375.16;4966969;28;20735;-34
2022/03/23 02:48:38;;;;;;;4.40;1.90;;;;;;;-148.56;100.00;61375.16;4964152;28;20429;-34
2022/03/23 02:51:04;;;;;;;2.45;1.90;;;;;;;-148.56;100.00;61375.16;4968165;28;20691;-33
2022/03/23 03:02:07;;;;;;;1.98;1.77;;;;;;;-148.56;100.00;61375.16;4967765;28;20150;-36
2022/03/23 03:04:32;;;;;;;2.00;1.77;;;;;;;-148.56;100.00;61375.16;4962318;28;20092;-32
2022/03/23 03:06:58;;;;;;;2.67;1.90;;;;;;;-148.56;100.00;61375.16;4965105;28;20034;-35
2022/03/23 03:09:23;;;;;;;2.38;1.75;;;;;;;-148.56;100.00;61375.16;4968589;28;20027;-39
2022/03/23 03:11:49;;;;;;;2.45;1.90;;;;;;;-148.56;100.00;61375.16;4968061;28;20748;-37
2022/03/23 03:14:14;;;;;;;2.40;1.90;;;;;;;-148.56;100.00;61375.16;4967617;28;20031;-34
2022/03/23 03:16:39;;;;;;;2.00;1.80;;;;;;;-148.56;100.00;61375.16;4968647;28;20044;-37
2022/03/23 03:19:05;;;;;;;2.47;1.75;;;;;;;-148.56;100.00;61375.16;4969314;28;21092;-36
2022/03/23 03:21:32;;;;;;;2.22;1.90;;;;;;;-148.56;100.00;61375.16;4970769;28;20026;-35
2022/03/23 03:23:57;;;;;;;2.35;1.80;;;;;;;-148.56;100.00;61375.16;4970966;28;20447;-36
2022/03/23 03:26:23;;;;;;;3.80;1.90;;;;;;;-148.56;100.00;61375.16;4971629;28;20030;-32
2022/03/23 03:28:50;;;;;;;2.70;1.90;;;;;;;-148.56;100.00;61375.16;4970715;28;20026;-36
2022/03/23 03:31:15;;;;;;;1.73;1.63;;;;;;;-148.56;100.00;61375.16;4970875;28;20038;-38
2022/03/23 03:37:02;;;;;;;2.10;1.90;;;;;;;-148.56;100.00;61375.16;4965012;28;20053;-39
2022/03/23 03:39:28;;;;;;;1.90;1.67;;;;;;;-148.56;100.00;61375.16;4968261;28;20286;-35
2022/03/23 03:41:53;;;;;;;3.42;2.13;;;;;;;-148.56;100.00;61375.16;4971327;28;20022;-32
2022/03/23 03:44:19;;;;;;;3.25;2.03;;;;;;;-148.56;100.00;61375.16;4971439;28;20687;-38
2022/03/23 03:46:46;;;;;;;3.28;1.90;;;;;;;-148.56;100.00;61375.16;4970961;28;20026;-37
2022/03/23 03:49:11;;;;;;;5.68;2.08;;;;;;;-148.56;100.00;61375.16;4968664;28;20397;-37
2022/03/23 03:51:37;;;;;;;3.80;1.90;;;;;;;-148.56;100.00;61375.16;4971077;28;20030;-34
2022/03/23 03:54:02;;;;;;;2.70;1.77;;;;;;;-148.56;100.00;61375.16;4971436;28;20528;-34
2022/03/23 03:56:28;;;;;;;3.35;1.85;;;;;;;-148.56;100.00;61375.16;4968582;28;20041;-37
2022/03/23 03:58:53;;;;;;;2.33;1.80;;;;;;;-148.56;100.00;61375.16;4971492;28;20625;-37
2022/03/23 04:01:18;;;;;;;10.80;2.05;;;;;;;-148.56;100.00;61375.16;4970727;28;20066;-36
2022/03/23 04:03:44;;;;;;;2.38;1.90;;;;;;;-148.56;100.00;61375.16;4971561;28;20073;-36
2022/03/23 04:06:09;;;;;;;2.10;1.75;;;;;;;-148.56;100.00;61375.16;4970191;28;20083;-34
2022/03/23 04:08:35;;;;;;;2.90;2.00;;;;;;;-148.56;100.00;61375.16;4972012;28;20073;-34
2022/03/23 04:11:00;;;;;;;1.90;1.70;;;;;;;-148.56;100.00;61375.16;4968247;28;20046;-34
2022/03/23 04:13:26;;;;;;;3.92;2.03;;;;;;;-148.56;100.00;61375.16;4970527;28;20031;-36
2022/03/23 04:15:51;;;;;;;2.15;1.90;;;;;;;-148.56;100.00;61375.16;4968769;28;20742;-35
2022/03/23 04:18:17;;;;;;;3.60;1.70;;;;;;;-148.56;100.00;61375.16;4971543;28;20033;-36
2022/03/23 04:20:42;;;;;;;2.33;1.80;;;;;;;-148.56;100.00;61375.16;4972058;28;20030;-33
2022/03/23 04:23:07;;;;;;;2.90;2.10;;;;;;;-148.56;100.00;61375.16;4971862;28;20077;-34
2022/03/23 04:25:33;;;;;;;2.50;1.92;;;;;;;-148.56;100.00;61375.16;4969649;28;20026;-36
2022/03/23 04:27:58;;;;;;;4.22;2.40;;;;;;;-148.56;100.00;61375.16;4970736;28;20517;-34
2022/03/23 04:30:26;;;;;;;2.30;1.73;;;;;;;-148.56;100.00;61375.16;4969473;28;20034;-38
2022/03/23 04:32:52;;;;;;;1.95;1.77;;;;;;;-148.56;100.00;61375.16;4971449;28;20442;-36
2022/03/23 04:35:17;;;;;;;2.80;2.00;;;;;;;-148.56;100.00;61375.16;4969236;28;20031;-35
2022/03/23 04:37:43;;;;;;;2.67;1.90;;;;;;;-148.56;100.00;61375.16;4971007;28;20030;-36
2022/03/23 04:40:09;;;;;;;2.20;2.00;;;;;;;-148.56;100.00;61375.16;4968336;28;20033;-35
2022/03/23 04:42:36;;;;;;;2.22;1.80;;;;;;;-148.56;100.00;61375.16;4970339;28;20030;-29
2022/03/23 04:45:02;;;;;;;2.17;1.90;;;;;;;-148.56;100.00;61375.16;4969141;28;20632;-35
2022/03/23 04:47:27;;;;;;;2.80;1.77;;;;;;;-148.56;100.00;61375.16;4971246;28;20049;-32
2022/03/23 04:49:52;;;;;;;3.38;2.17;;;;;;;-148.56;100.00;61375.16;4969825;28;20023;-34
2022/03/23 04:52:18;;;;;;;2.70;2.08;;;;;;;-148.56;100.00;61375.16;4969284;28;20045;-37
2022/03/23 04:54:44;;;;;;;2.40;2.08;;;;;;;-148.56;100.00;61375.16;4970506;28;20026;-31
2022/03/23 04:57:09;;;;;;;2.10;1.90;;;;;;;-148.56;100.00;61375.16;4968408;28;20038;-35
2022/03/23 04:59:35;;;;;;;2.42;2.00;;;;;;;-148.56;100.00;61375.16;4970339;28;20121;-33
2022/03/23 05:02:00;;;;;;;2.50;2.00;;;;;;;-148.56;100.00;61375.16;4969393;28;20019;-33
2022/03/23 05:04:26;;;;;;;2.97;2.10;;;;;;;-148.56;100.00;61375.16;4967216;28;20034;-35
2022/03/23 05:06:51;;;;;;;2.25;1.98;;;;;;;-148.56;100.00;61375.16;4966818;28;20527;-37
2022/03/23 05:09:16;;;;;;;1.95;1.75;;;;;;;-148.56;100.00;61375.16;4969247;28;20030;-39
2022/03/23 05:11:42;;;;;;;2.00;1.80;;;;;;;-148.56;100.00;61375.16;4968819;28;20038;-36
2022/03/23 05:14:07;;;;;;;2.38;1.75;;;;;;;-148.56;100.00;61375.16;4967780;28;20604;-33
2022/03/23 05:16:33;;;;;;;1.92;1.70;;;;;;;-148.56;100.00;61375.16;4969342;28;20038;-39
2022/03/23 05:18:58;;;;;;;1.92;1.73;;;;;;;-148.56;100.00;61375.16;4957709;28;20026;-36
2022/03/23 05:21:24;;;;;;;1.95;1.75;;;;;;;-148.56;100.00;61375.16;4952265;28;20028;-34
2022/03/23 05:23:49;;;;;;;4.03;1.90;;;;;;;-148.56;100.00;61375.16;4952656;28;20026;-35
2022/03/23 05:26:15;;;;;;;2.30;2.10;;;;;;;-148.56;100.00;61375.16;4950992;28;20592;-41
2022/03/23 05:28:41;;;;;;;7.65;1.80;;;;;;;-148.56;100.00;61375.16;4956222;28;20042;-37
2022/03/23 05:31:06;;;;;;;2.15;1.80;;;;;;;-148.56;100.00;61375.16;4955727;28;20038;-37
2022/03/23 05:33:32;;;;;;;2.35;1.90;;;;;;;-148.56;100.00;61375.16;4957021;28;20019;-34
2022/03/23 05:35:57;;;;;;;3.55;1.98;;;;;;;-148.56;100.00;61375.16;4954725;28;20034;-34
2022/03/23 05:38:23;;;;;;;2.13;1.83;;;;;;;-148.56;100.00;61375.16;4966689;28;20031;-34
2022/03/23 05:40:48;;;;;;;5.93;2.00;;;;;;;-148.56;100.00;61375.16;4964309;28;20080;-37
2022/03/23 05:43:13;;;;;;;3.30;1.85;;;;;;;-148.56;100.00;61375.16;4969200;28;20500;-37
2022/03/23 05:45:39;;;;;;;2.50;1.70;;;;;;;-148.56;100.00;61375.16;4971636;28;20033;-37
2022/03/23 05:48:05;;;;;;;2.40;1.80;;;;;;;-148.56;100.00;61375.16;4968384;28;20054;-37
2022/03/23 05:50:31;;;;;;;2.75;2.10;;;;;;;-148.56;100.00;61375.16;4969937;28;20037;-35
2022/03/23 05:52:56;;;;;;;2.67;1.92;;;;;;;-148.56;100.00;61375.16;4968649;28;20018;-33
2022/03/23 05:55:22;;;;;;;2.55;1.90;;;;;;;-148.56;100.00;61375.16;4968795;28;20031;-37
2022/03/23 05:57:47;;;;;;;2.15;1.75;;;;;;;-148.56;100.00;61375.16;4968577;28;20747;-30
2022/03/23 06:00:13;;;;;;;2.00;1.80;;;;;;;-148.56;100.00;61375.16;4970779;28;20038;-35
2022/03/23 06:02:40;;;;;;;2.38;2.10;;;;;;;-148.56;100.00;61375.16;4966776;28;20026;-37
2022/03/23 06:05:06;;;;;;;2.58;1.90;;;;;;;-148.56;100.00;61375.16;4968857;28;20034;-36
2022/03/23 06:07:34;;;;;;;2.72;1.85;;;;;;;-148.56;100.00;61375.16;4968244;28;20145;-37
2022/03/23 06:10:00;;;;;;;5.68;1.85;;;;;;;-148.56;100.00;61375.16;4968344;28;20547;-38
2022/03/23 06:12:25;;;;;;;2.90;2.05;;;;;;;-148.56;100.00;61375.16;4970620;28;20537;-38
2022/03/23 06:14:51;;;;;;;2.00;1.65;;;;;;;-148.56;100.00;61375.16;4963356;28;20030;-38
2022/03/23 06:17:16;;;;;;;1.70;1.60;;;;;;;-148.56;100.00;61375.16;4970095;28;20034;-35
2022/03/23 06:19:42;;;;;;;3.08;1.92;;;;;;;-148.56;100.00;61375.16;4967375;28;20034;-37
2022/03/23 06:22:07;;;;;;;2.05;1.65;;;;;;;-148.56;100.00;61375.16;4968122;28;20081;-36
2022/03/23 06:24:33;;;;;;;4.18;2.00;;;;;;;-148.56;100.00;61375.16;4968322;28;20509;-37
2022/03/23 06:26:58;;;;;;;2.90;2.10;;;;;;;-148.56;100.00;61375.16;4967196;28;20041;-34
2022/03/23 06:29:24;;;;;;;3.33;2.00;;;;;;;-148.56;100.00;61375.16;4969388;28;20022;-38
2022/03/23 06:31:49;;;;;;;1.80;1.60;;;;;;;-148.56;100.00;61375.16;4968195;28;20130;-36
2022/03/23 06:34:15;;;;;;;2.13;1.80;;;;;;;-148.56;100.00;61375.16;4969307;28;20037;-36
2022/03/23 06:36:40;;;;;;;1.98;1.80;;;;;;;-148.56;100.00;61375.16;4949601;28;20077;-37
2022/03/23 06:39:05;;;;;;;2.03;1.60;;;;;;;-148.56;100.00;61375.16;4960321;28;20038;-38
2022/03/23 06:41:31;;;;;;;2.08;1.80;;;;;;;-148.56;100.00;61375.16;4967450;28;20031;-38
2022/03/23 06:43:56;;;;;;;3.42;1.95;;;;;;;-148.56;100.00;61375.16;4964776;28;20037;-33
2022/03/23 06:46:22;;;;;;;2.55;1.80;;;;;;;-148.56;100.00;61375.16;4963706;28;20031;-34
2022/03/23 06:48:47;;;;;;;2.47;1.88;;;;;;;-148.56;100.00;61375.16;4945998;28;20038;-37
2022/03/23 06:51:13;;;;;;;3.20;1.80;;;;;;;-148.56;100.00;61375.16;4957679;28;20048;-35
2022/03/23 06:53:39;;;;;;;4.95;2.08;;;;;;;-148.56;100.00;61375.16;4970748;28;20041;-36
2022/03/23 06:56:04;;;;;;;1.70;1.50;;;;;;;-148.56;100.00;61375.16;4954430;28;20050;-39
2022/03/23 06:58:30;;;;;;;4.40;1.77;;;;;;;-148.56;100.00;61375.16;4973134;28;20030;-38
2022/03/23 07:00:57;;;;;;;2.00;1.80;;;;;;;-148.56;100.00;61375.16;4945014;28;20035;-37
2022/03/23 07:03:23;;;;;;;3.42;1.90;;;;;;;-148.56;100.00;61375.16;4926592;28;20026;-37
2022/03/23 07:05:48;;;;;;;2.33;1.70;;;;;;;-148.56;100.00;61375.16;4955158;28;20104;-32
2022/03/23 07:10:57;;;;;;;3.47;1.90;;;;;;;-148.56;100.00;61375.16;4971203;28;20955;-36
2022/03/23 07:13:23;;;;;;;4.05;2.20;;;;;;;-148.56;100.00;61375.16;4958381;28;20727;-35
2022/03/23 07:15:48;;;;;;;3.42;2.30;;;;;;;-148.56;100.00;61375.16;4943764;28;20065;-36
2022/03/23 07:18:14;;;;;;;6.85;3.50;;;;;;;-148.56;100.00;61375.16;4964302;28;20524;-33
2022/03/23 07:20:39;;;;;;;14.75;4.53;;;;;;;-148.56;100.00;61375.16;4970646;28;20089;-38
2022/03/23 07:23:05;;;;;;;8.60;3.08;;;;;;;-148.56;100.00;61375.16;4968216;28;20037;-33
2022/03/23 07:25:30;;;;;;;8.63;2.70;;;;;;;-148.56;100.00;61375.16;4959564;28;20042;-31
2022/03/23 07:27:56;;;;;;;9.40;2.97;;;;;;;-148.56;100.00;61375.16;4966539;28;20042;-37
2022/03/23 07:30:21;;;;;;;9.45;3.30;;;;;;;-148.56;100.00;61375.16;4964913;28;20030;-35
2022/03/23 07:32:46;;;;;;;8.27;3.28;;;;;;;-148.56;100.00;61375.16;4961105;28;20116;-31
2022/03/23 07:35:12;;;;;;;8.70;3.50;;;;;;;-148.56;100.00;61375.16;4967159;28;20549;-39
2022/03/23 07:37:37;;;;;;;12.38;3.45;;;;;;;-148.56;100.00;61375.16;4966520;28;21013;-35
2022/03/23 07:40:05;;;;;;;13.13;3.58;;;;;;;-148.56;100.00;61375.16;4971093;28;20085;-38
2022/03/23 07:42:30;;;;;;;8.98;3.83;;;;;;;-148.56;100.00;61375.16;4966602;28;20014;-38
2022/03/23 07:44:56;;;;;;;10.15;3.88;;;;;;;-148.56;100.00;61375.16;4967729;28;21968;-34
2022/03/23 07:47:21;;;;;;;10.25;4.03;;;;;;;-148.56;100.00;61375.16;4967883;28;20026;-35
2022/03/23 07:49:46;;;;;;;8.10;3.80;;;;;;;-148.56;100.00;61375.16;4971071;28;20776;-35
2022/03/23 07:52:12;;;;;;;11.32;4.10;;;;;;;-148.56;100.00;61375.16;4969061;28;20596;-37
2022/03/23 07:54:37;;;;;;;10.57;3.95;;;;;;;-148.56;100.00;61375.16;4970429;28;20050;-37
2022/03/23 07:57:03;;;;;;;10.55;4.03;;;;;;;-148.56;100.00;61375.16;4971644;28;20034;-37
2022/03/23 07:59:28;;;;;;;7.10;3.70;;;;;;;-148.56;100.00;61375.16;4971147;28;20027;-35
2022/03/23 08:01:54;;;;;;;7.35;3.90;;;;;;;-148.56;100.00;61375.16;4970765;28;20030;-37
2022/03/23 08:04:19;;;;;;;12.45;4.00;;;;;;;-148.56;100.00;61375.16;4969411;28;20114;-36
2022/03/23 08:06:45;;;;;;;14.48;4.20;;;;;;;-148.56;100.00;61375.16;4969929;28;20035;-37
2022/03/23 08:09:10;;;;;;;7.03;3.88;;;;;;;-148.56;100.00;61375.16;4967446;28;20082;-37
2022/03/23 08:11:36;;;;;;;9.13;3.70;;;;;;;-148.56;100.00;61375.16;4967827;28;21577;-36
2022/03/23 08:14:01;;;;;;;9.13;3.75;;;;;;;-148.56;100.00;61375.16;4970503;28;20038;-35
2022/03/23 08:16:27;;;;;;;6.40;3.40;;;;;;;-148.56;100.00;61375.16;4970406;28;20031;-32
2022/03/23 08:18:52;;;;;;;13.02;4.35;;;;;;;-148.56;100.00;61375.16;4969936;28;20027;-36
2022/03/23 08:21:19;;;;;;;7.03;3.55;;;;;;;-148.56;100.00;61375.16;4971306;28;20113;-36
2022/03/23 08:23:45;;;;;;;7.78;4.10;;;;;;;-148.56;100.00;61375.16;4967658;28;20018;-37
2022/03/23 08:26:13;;;;;;;8.85;3.80;;;;;;;-148.56;100.00;61375.16;4970319;28;20109;-34
2022/03/23 08:28:39;;;;;;;7.13;4.07;;;;;;;-148.56;100.00;61375.16;4965351;28;20489;-37
2022/03/23 08:31:04;;;;;;;15.60;6.10;;;;;;;-148.56;100.00;61375.16;4961575;28;20121;-37
2022/03/23 08:33:34;;;;;;;8.20;3.75;;;;;;;-148.56;100.00;61375.16;4967951;28;20034;-35
2022/03/23 08:36:00;;;;;;;8.93;3.72;;;;;;;-148.56;100.00;61375.16;4952955;28;20034;-38
2022/03/23 08:38:25;;;;;;;6.93;3.42;;;;;;;-148.56;100.00;61375.16;4969406;28;20409;-39
2022/03/23 08:40:51;;;;;;;10.00;3.17;;;;;;;-148.56;100.00;61375.16;4970055;28;20034;-37
2022/03/23 08:43:16;;;;;;;4.97;3.25;;;;;;;-148.56;100.00;61375.16;4966994;28;20022;-36
2022/03/23 08:45:42;;;;;;;7.03;3.60;;;;;;;-148.56;100.00;61375.16;4969092;28;20040;-39
2022/03/23 08:48:09;;;;;;;6.05;3.13;;;;;;;-148.56;100.00;61375.16;4972183;28;20038;-38
2022/03/23 08:50:34;;;;;;;5.47;2.65;;;;;;;-148.56;100.00;61375.16;4969479;28;20053;-38
2022/03/23 08:53:00;;;;;;;9.07;2.90;;;;;;;-148.56;100.00;61375.16;4970327;28;20497;-37
2022/03/23 08:55:28;;;;;;;5.88;2.63;;;;;;;-148.56;100.00;61375.16;4972504;28;20018;-35
2022/03/23 08:57:54;;;;;;;5.13;2.83;;;;;;;-148.56;100.00;61375.16;4968683;28;20056;-37
2022/03/23 09:00:19;;;;;;;4.38;2.42;;;;;;;-148.56;100.00;61375.16;4958075;28;20583;-36
2022/03/23 09:02:45;;;;;;;7.20;3.15;;;;;;;-148.56;100.00;61375.16;4965784;28;20030;-44
2022/03/23 09:05:13;;;;;;;6.38;3.00;;;;;;;-148.56;100.00;61375.16;4966855;28;20767;-34
2022/03/23 09:07:39;;;;;;;6.18;2.50;;;;;;;-148.56;100.00;61375.16;4969539;28;20374;-34
2022/03/23 09:10:06;;;;;;;8.48;3.40;;;;;;;-148.56;100.00;61375.16;4968805;28;20053;-28
2022/03/23 09:12:31;;;;;;;39.53;13.35;;;;;;;-148.56;100.00;61375.16;4968582;28;20072;-35
2022/03/23 09:14:57;;;;;;;18.30;12.13;;;;;;;-148.56;100.00;61375.16;4970203;28;20042;-35
2022/03/23 09:17:22;;;;;;;25.77;13.00;;;;;;;-148.56;100.00;61375.16;4969336;28;20473;-36
2022/03/23 09:19:48;;;;;;;17.67;12.10;;;;;;;-148.56;100.00;61375.16;4966793;28;20025;-39
2022/03/23 09:22:13;;;;;;;20.70;11.75;;;;;;;-148.56;100.00;61375.16;4964910;28;20018;-32
2022/03/23 09:24:39;;;;;;;21.05;12.70;;;;;;;-148.56;100.00;61375.16;4969484;28;20038;-34
2022/03/23 09:27:04;;;;;;;28.88;14.45;;;;;;;-148.56;100.00;61375.16;4964160;28;20269;-37
2022/03/23 09:29:30;;;;;;;21.45;13.07;;;;;;;-148.56;100.00;61375.16;4960766;28;20037;-36
2022/03/23 09:31:55;;;;;;;37.00;12.27;;;;;;;-148.56;100.00;61375.16;4962750;28;20030;-36
2022/03/23 09:34:21;;;;;;;17.02;12.45;;;;;;;-148.56;100.00;61375.16;4964333;28;20021;-34
2022/03/23 09:39:30;;;;;;;18.33;10.55;;;;;;;-148.56;100.00;61375.16;4965540;28;20898;-32
2022/03/23 09:41:57;;;;;;;22.15;11.40;;;;;;;-148.56;100.00;61375.16;4959614;28;20038;-28
2022/03/23 09:44:24;;;;;;;19.75;9.48;;;;;;;-148.56;100.00;61375.16;4964940;28;20751;-38
2022/03/23 09:46:49;;;;;;;26.60;10.50;;;;;;;-148.56;100.00;61375.16;4962348;28;20041;-37
2022/03/23 09:49:15;;;;;;;22.02;11.68;;;;;;;-148.56;100.00;61375.16;4957407;28;20035;-37
2022/03/23 09:51:41;;;;;;;24.33;12.75;;;;;;;-148.56;100.00;61375.16;4967928;28;20041;-35
2022/03/23 09:54:07;;;;;;;29.98;12.95;;;;;;;-148.56;100.00;61375.16;4964973;28;20046;-33
2022/03/23 09:56:32;;;;;;;20.90;9.73;;;;;;;-148.56;100.00;61375.16;4960502;28;20022;-37
2022/03/23 09:58:58;;;;;;;28.10;10.07;;;;;;;-148.56;100.00;61375.16;4965507;28;20041;-35
2022/03/23 10:01:30;;;;;;;22.63;11.40;;;;;;;-148.56;100.00;61375.16;4965423;28;20041;-38
2022/03/23 10:04:15;;;;;;;20.88;11.02;;;;;;;-148.56;100.00;61375.16;4961674;28;20045;-36
2022/03/23 10:06:59;;;;;;;26.95;10.57;;;;;;;-148.56;100.00;61375.16;4960423;28;20545;-37
2022/03/23 10:10:01;;;;;;;26.40;9.68;;;;;;;-148.56;100.00;61375.16;4957210;28;20161;-37
2022/03/23 10:12:59;;;;;;;19.65;11.30;;;;;;;-148.56;100.00;61375.16;4963412;28;20030;-33
2022/03/23 10:15:46;;;;;;;15.57;10.77;;;;;;;-148.56;100.00;61375.16;4964198;28;20065;-34
2022/03/23 10:18:40;;;;;;;15.98;7.75;;;;;;;-148.56;100.00;61375.16;4960659;28;20057;-35
2022/03/23 10:21:07;;;;;;;17.80;9.73;;;;;;;-148.56;100.00;61375.16;4964237;28;20085;-35
2022/03/23 10:23:32;;;;;;;18.20;9.18;;;;;;;-148.56;100.00;61375.16;4968315;28;20485;-35
2022/03/23 10:26:09;;;;;;;15.23;7.70;;;;;;;-148.56;100.00;61375.16;4960179;28;20030;-34
2022/03/23 10:28:35;;;;;;;17.80;7.32;;;;;;;-148.56;100.00;61375.16;4946220;28;20030;-38
2022/03/23 10:31:00;;;;;;;18.65;7.18;;;;;;;-148.56;100.00;61375.16;4963725;28;20034;-33
2022/03/23 10:33:26;;;;;;;16.33;6.60;;;;;;;-148.56;100.00;61375.16;4963266;28;20058;-35
2022/03/23 10:35:51;;;;;;;15.63;7.13;;;;;;;-148.56;100.00;61375.16;4966894;28;20026;-33
2022/03/23 10:38:20;;;;;;;10.88;6.40;;;;;;;-148.56;100.00;61375.16;4961285;28;20570;-33
2022/03/23 10:40:47;;;;;;;11.45;6.60;;;;;;;-148.56;100.00;61375.16;4963123;28;20035;-35
2022/03/23 10:43:18;;;;;;;14.40;5.35;;;;;;;-148.56;100.00;61375.16;4963381;28;20050;-31
2022/03/23 10:45:44;;;;;;;15.48;5.53;;;;;;;-148.56;100.00;61375.16;4967599;28;20030;-35
2022/03/23 10:48:13;;;;;;;17.33;5.47;;;;;;;-148.56;100.00;61375.16;4969651;28;20520;-28
2022/03/23 10:50:49;;;;;;;12.50;4.85;;;;;;;-148.56;100.00;61375.16;4960675;28;20042;-34
2022/03/23 10:53:15;;;;;;;11.00;4.88;;;;;;;-148.56;100.00;61375.16;4944524;28;20046;-32
2022/03/23 10:55:47;;;;;;;12.70;5.03;;;;;;;-148.56;100.00;61375.16;4965785;28;20030;-32
2022/03/23 11:02:02;;;;;;;8.68;4.30;;;;;;;-148.56;100.00;61375.16;4959605;28;20057;-33
2022/03/23 11:04:29;;;;;;;5.97;3.85;;;;;;;-148.56;100.00;61375.16;4957142;28;20030;-34
2022/03/23 11:06:59;;;;;;;11.50;4.95;;;;;;;-148.56;100.00;61375.16;4964679;28;20745;-34
2022/03/23 11:18:18;;;;;;;9.65;4.05;;;;;;;-148.56;100.00;61375.16;4967215;28;20504;-34
2022/03/23 11:20:54;;;;;;;11.27;4.38;;;;;;;-148.56;100.00;61375.16;4956365;28;20126;-31
2022/03/23 11:23:26;;;;;;;13.82;3.95;;;;;;;-148.56;100.00;61375.16;4962994;28;20030;-37
2022/03/23 11:25:55;;;;;;;7.25;3.47;;;;;;;-148.56;100.00;61375.16;4961687;28;20169;-36
2022/03/23 11:28:21;;;;;;;10.90;3.78;;;;;;;-148.56;100.00;61375.16;4964067;28;20041;-30
2022/03/23 11:30:47;;;;;;;9.55;3.50;;;;;;;-148.56;100.00;61375.16;4966917;28;20031;-29
2022/03/23 11:33:17;;;;;;;7.03;3.05;;;;;;;-148.56;100.00;61375.16;4964671;28;20074;-33